sensor_id;sensor_type;location;lat;lon;timestamp;temperature;humidity
66594;DHT22;53450;42.584;23.366;2023-07-08T00:02:13;17.58;74.98
66594;DHT22;53450;42.584;23.366;2023-07-08T00:04:39;17.58;75.23
66594;DHT22;53450;42.584;23.366;2023-07-08T00:07:08;17.48;75.83
66594;DHT22;53450;42.584;23.366;2023-07-08T00:09:35;17.47;76.11
66594;DHT22;53450;42.584;23.366;2023-07-08T00:12:01;17.42;76.20
66594;DHT22;53450;42.584;23.366;2023-07-08T00:14:27;17.37;75.88
66594;DHT22;53450;42.584;23.366;2023-07-08T00:16:52;17.40;75.57
66594;DHT22;53450;42.584;23.366;2023-07-08T00:19:18;17.34;75.58
66594;DHT22;53450;42.584;23.366;2023-07-08T00:21:45;17.41;75.55
66594;DHT22;53450;42.584;23.366;2023-07-08T00:24:11;17.41;75.21
66594;DHT22;53450;42.584;23.366;2023-07-08T00:26:37;17.38;75.13
66594;DHT22;53450;42.584;23.366;2023-07-08T00:29:28;17.38;75.30
66594;DHT22;53450;42.584;23.366;2023-07-08T00:32:19;17.32;75.47
66594;DHT22;53450;42.584;23.366;2023-07-08T00:34:44;17.32;75.29
66594;DHT22;53450;42.584;23.366;2023-07-08T00:37:11;17.26;75.49
66594;DHT22;53450;42.584;23.366;2023-07-08T00:39:38;17.26;75.09
66594;DHT22;53450;42.584;23.366;2023-07-08T00:42:16;17.27;75.00
66594;DHT22;53450;42.584;23.366;2023-07-08T00:48:34;17.23;75.12
66594;DHT22;53450;42.584;23.366;2023-07-08T00:51:00;17.21;74.87
66594;DHT22;53450;42.584;23.366;2023-07-08T00:53:30;17.23;75.01
66594;DHT22;53450;42.584;23.366;2023-07-08T00:59:02;17.21;75.51
66594;DHT22;53450;42.584;23.366;2023-07-08T01:01:54;17.19;75.46
66594;DHT22;53450;42.584;23.366;2023-07-08T01:07:36;17.14;74.92
66594;DHT22;53450;42.584;23.366;2023-07-08T01:10:34;17.19;74.50
66594;DHT22;53450;42.584;23.366;2023-07-08T01:13:07;17.23;73.49
66594;DHT22;53450;42.584;23.366;2023-07-08T01:15:39;17.30;73.19
66594;DHT22;53450;42.584;23.366;2023-07-08T01:18:10;17.32;72.80
66594;DHT22;53450;42.584;23.366;2023-07-08T01:20:37;17.32;73.06
66594;DHT22;53450;42.584;23.366;2023-07-08T01:23:03;17.17;73.31
66594;DHT22;53450;42.584;23.366;2023-07-08T01:25:30;17.17;73.75
66594;DHT22;53450;42.584;23.366;2023-07-08T01:27:57;17.14;73.98
66594;DHT22;53450;42.584;23.366;2023-07-08T01:30:23;17.21;74.17
66594;DHT22;53450;42.584;23.366;2023-07-08T01:32:54;17.04;74.89
66594;DHT22;53450;42.584;23.366;2023-07-08T01:35:46;16.99;75.60
66594;DHT22;53450;42.584;23.366;2023-07-08T01:38:38;16.99;75.90
66594;DHT22;53450;42.584;23.366;2023-07-08T01:41:05;16.96;75.94
66594;DHT22;53450;42.584;23.366;2023-07-08T01:43:31;16.90;76.13
66594;DHT22;53450;42.584;23.366;2023-07-08T01:46:01;16.89;76.31
66594;DHT22;53450;42.584;23.366;2023-07-08T01:48:33;16.90;76.46
66594;DHT22;53450;42.584;23.366;2023-07-08T01:51:25;16.89;76.09
66594;DHT22;53450;42.584;23.366;2023-07-08T01:54:19;16.84;76.43
66594;DHT22;53450;42.584;23.366;2023-07-08T01:56:45;16.96;76.23
66594;DHT22;53450;42.584;23.366;2023-07-08T01:59:11;16.87;76.01
66594;DHT22;53450;42.584;23.366;2023-07-08T02:01:37;16.61;76.45
66594;DHT22;53450;42.584;23.366;2023-07-08T02:04:03;16.52;76.65
66594;DHT22;53450;42.584;23.366;2023-07-08T02:06:28;16.51;76.86
66594;DHT22;53450;42.584;23.366;2023-07-08T02:08:54;16.63;76.62
66594;DHT22;53450;42.584;23.366;2023-07-08T02:11:24;16.71;76.41
66594;DHT22;53450;42.584;23.366;2023-07-08T02:13:49;16.66;76.92
66594;DHT22;53450;42.584;23.366;2023-07-08T02:16:15;16.62;77.07
66594;DHT22;53450;42.584;23.366;2023-07-08T02:18:41;16.68;76.66
66594;DHT22;53450;42.584;23.366;2023-07-08T02:21:06;16.58;77.24
66594;DHT22;53450;42.584;23.366;2023-07-08T02:23:32;16.53;77.34
66594;DHT22;53450;42.584;23.366;2023-07-08T02:26:23;16.58;76.28
66594;DHT22;53450;42.584;23.366;2023-07-08T02:29:14;16.71;75.54
66594;DHT22;53450;42.584;23.366;2023-07-08T02:31:40;16.86;75.11
66594;DHT22;53450;42.584;23.366;2023-07-08T02:34:06;16.90;75.46
66594;DHT22;53450;42.584;23.366;2023-07-08T02:36:33;16.92;74.95
66594;DHT22;53450;42.584;23.366;2023-07-08T02:39:00;16.97;74.72
66594;DHT22;53450;42.584;23.366;2023-07-08T02:41:26;16.96;74.55
66594;DHT22;53450;42.584;23.366;2023-07-08T02:43:51;16.96;74.66
66594;DHT22;53450;42.584;23.366;2023-07-08T02:46:17;16.99;74.25
66594;DHT22;53450;42.584;23.366;2023-07-08T02:48:43;16.93;74.54
66594;DHT22;53450;42.584;23.366;2023-07-08T02:51:10;16.94;74.88
66594;DHT22;53450;42.584;23.366;2023-07-08T02:53:36;16.97;75.03
66594;DHT22;53450;42.584;23.366;2023-07-08T02:56:02;16.99;74.99
66594;DHT22;53450;42.584;23.366;2023-07-08T02:58:28;16.96;74.47
66594;DHT22;53450;42.584;23.366;2023-07-08T03:00:55;17.06;74.52
66594;DHT22;53450;42.584;23.366;2023-07-08T03:03:21;17.10;74.37
66594;DHT22;53450;42.584;23.366;2023-07-08T03:06:02;17.10;74.42
66594;DHT22;53450;42.584;23.366;2023-07-08T03:08:29;17.09;74.66
66594;DHT22;53450;42.584;23.366;2023-07-08T03:10:57;17.06;74.64
66594;DHT22;53450;42.584;23.366;2023-07-08T03:13:24;17.07;74.74
66594;DHT22;53450;42.584;23.366;2023-07-08T03:15:50;17.03;75.10
66594;DHT22;53450;42.584;23.366;2023-07-08T03:18:18;17.03;74.77
66594;DHT22;53450;42.584;23.366;2023-07-08T03:20:47;17.03;74.88
66594;DHT22;53450;42.584;23.366;2023-07-08T03:23:15;17.04;74.80
66594;DHT22;53450;42.584;23.366;2023-07-08T03:25:41;17.03;74.68
66594;DHT22;53450;42.584;23.366;2023-07-08T03:28:09;17.02;74.40
66594;DHT22;53450;42.584;23.366;2023-07-08T03:30:41;17.06;74.60
66594;DHT22;53450;42.584;23.366;2023-07-08T03:33:08;17.03;74.66
66594;DHT22;53450;42.584;23.366;2023-07-08T03:35:34;17.02;74.43
66594;DHT22;53450;42.584;23.366;2023-07-08T03:38:00;17.09;74.35
66594;DHT22;53450;42.584;23.366;2023-07-08T03:40:25;17.10;74.03
66594;DHT22;53450;42.584;23.366;2023-07-08T03:42:51;17.06;74.03
66594;DHT22;53450;42.584;23.366;2023-07-08T03:45:17;17.09;74.09
66594;DHT22;53450;42.584;23.366;2023-07-08T03:47:43;17.10;73.44
66594;DHT22;53450;42.584;23.366;2023-07-08T03:50:22;17.13;73.37
66594;DHT22;53450;42.584;23.366;2023-07-08T03:52:51;17.20;72.57
66594;DHT22;53450;42.584;23.366;2023-07-08T03:55:17;17.27;72.33
66594;DHT22;53450;42.584;23.366;2023-07-08T03:57:43;17.28;72.75
66594;DHT22;53450;42.584;23.366;2023-07-08T04:00:10;17.28;72.99
66594;DHT22;53450;42.584;23.366;2023-07-08T04:02:41;17.28;72.95
66594;DHT22;53450;42.584;23.366;2023-07-08T04:07:40;17.48;72.71
66594;DHT22;53450;42.584;23.366;2023-07-08T04:10:07;17.55;73.05
66594;DHT22;53450;42.584;23.366;2023-07-08T04:12:33;17.48;73.54
66594;DHT22;53450;42.584;23.366;2023-07-08T04:14:59;17.61;73.07
66594;DHT22;53450;42.584;23.366;2023-07-08T04:17:25;17.52;73.36
66594;DHT22;53450;42.584;23.366;2023-07-08T04:19:50;17.88;71.92
66594;DHT22;53450;42.584;23.366;2023-07-08T04:22:16;18.44;70.29
66594;DHT22;53450;42.584;23.366;2023-07-08T04:24:42;19.01;68.97
66594;DHT22;53450;42.584;23.366;2023-07-08T04:27:16;19.02;68.64
66594;DHT22;53450;42.584;23.366;2023-07-08T04:29:42;19.33;68.13
66594;DHT22;53450;42.584;23.366;2023-07-08T04:32:08;18.68;69.87
66594;DHT22;53450;42.584;23.366;2023-07-08T04:34:34;18.19;71.86
66594;DHT22;53450;42.584;23.366;2023-07-08T04:36:59;18.05;72.48
66594;DHT22;53450;42.584;23.366;2023-07-08T04:39:27;17.95;73.03
66594;DHT22;53450;42.584;23.366;2023-07-08T04:41:53;17.85;73.16
66594;DHT22;53450;42.584;23.366;2023-07-08T04:44:24;17.82;73.83
66594;DHT22;53450;42.584;23.366;2023-07-08T04:46:53;18.00;73.68
66594;DHT22;53450;42.584;23.366;2023-07-08T04:49:20;17.88;73.06
66594;DHT22;53450;42.584;23.366;2023-07-08T04:51:46;17.99;72.66
66594;DHT22;53450;42.584;23.366;2023-07-08T04:54:12;17.99;72.86
66594;DHT22;53450;42.584;23.366;2023-07-08T04:56:48;17.78;73.48
66594;DHT22;53450;42.584;23.366;2023-07-08T04:59:39;17.78;73.51
66594;DHT22;53450;42.584;23.366;2023-07-08T05:02:11;17.83;73.15
66594;DHT22;53450;42.584;23.366;2023-07-08T05:04:36;17.82;73.02
66594;DHT22;53450;42.584;23.366;2023-07-08T05:07:02;17.79;73.07
66594;DHT22;53450;42.584;23.366;2023-07-08T05:09:28;17.72;73.06
66594;DHT22;53450;42.584;23.366;2023-07-08T05:11:54;17.75;72.78
66594;DHT22;53450;42.584;23.366;2023-07-08T05:14:20;17.85;72.82
66594;DHT22;53450;42.584;23.366;2023-07-08T05:16:45;17.92;72.65
66594;DHT22;53450;42.584;23.366;2023-07-08T05:19:11;18.02;72.78
66594;DHT22;53450;42.584;23.366;2023-07-08T05:21:37;18.06;72.53
66594;DHT22;53450;42.584;23.366;2023-07-08T05:24:05;18.12;71.74
66594;DHT22;53450;42.584;23.366;2023-07-08T05:26:31;18.16;71.60
66594;DHT22;53450;42.584;23.366;2023-07-08T05:28:57;18.36;71.50
66594;DHT22;53450;42.584;23.366;2023-07-08T05:31:23;18.40;71.51
66594;DHT22;53450;42.584;23.366;2023-07-08T05:33:48;18.36;71.09
66594;DHT22;53450;42.584;23.366;2023-07-08T05:36:14;18.39;70.75
66594;DHT22;53450;42.584;23.366;2023-07-08T05:38:39;18.51;70.28
66594;DHT22;53450;42.584;23.366;2023-07-08T05:41:07;18.44;70.20
66594;DHT22;53450;42.584;23.366;2023-07-08T05:43:33;18.51;71.03
66594;DHT22;53450;42.584;23.366;2023-07-08T05:46:00;18.58;71.06
66594;DHT22;53450;42.584;23.366;2023-07-08T05:48:26;18.72;70.78
66594;DHT22;53450;42.584;23.366;2023-07-08T05:50:52;18.70;71.14
66594;DHT22;53450;42.584;23.366;2023-07-08T05:53:19;18.87;70.51
66594;DHT22;53450;42.584;23.366;2023-07-08T05:55:47;18.83;70.16
66594;DHT22;53450;42.584;23.366;2023-07-08T05:58:12;18.99;70.28
66594;DHT22;53450;42.584;23.366;2023-07-08T06:00:44;19.08;69.17
66594;DHT22;53450;42.584;23.366;2023-07-08T06:03:10;19.09;68.41
66594;DHT22;53450;42.584;23.366;2023-07-08T06:05:36;19.16;68.77
66594;DHT22;53450;42.584;23.366;2023-07-08T06:08:02;19.39;68.66
66594;DHT22;53450;42.584;23.366;2023-07-08T06:10:28;19.56;68.63
66594;DHT22;53450;42.584;23.366;2023-07-08T06:12:53;19.53;68.36
66594;DHT22;53450;42.584;23.366;2023-07-08T06:15:19;19.29;68.31
66594;DHT22;53450;42.584;23.366;2023-07-08T06:17:44;19.23;68.66
66594;DHT22;53450;42.584;23.366;2023-07-08T06:20:10;19.32;68.81
66594;DHT22;53450;42.584;23.366;2023-07-08T06:22:36;19.16;69.21
66594;DHT22;53450;42.584;23.366;2023-07-08T06:25:01;19.05;69.28
66594;DHT22;53450;42.584;23.366;2023-07-08T06:27:27;18.91;69.84
66594;DHT22;53450;42.584;23.366;2023-07-08T06:29:53;19.09;70.34
66594;DHT22;53450;42.584;23.366;2023-07-08T06:32:18;19.12;69.78
66594;DHT22;53450;42.584;23.366;2023-07-08T06:34:44;19.23;70.34
66594;DHT22;53450;42.584;23.366;2023-07-08T06:37:09;19.46;69.53
66594;DHT22;53450;42.584;23.366;2023-07-08T06:39:35;19.55;68.76
66594;DHT22;53450;42.584;23.366;2023-07-08T06:42:01;19.70;68.07
66594;DHT22;53450;42.584;23.366;2023-07-08T06:44:31;19.53;67.87
66594;DHT22;53450;42.584;23.366;2023-07-08T06:46:56;19.46;68.32
66594;DHT22;53450;42.584;23.366;2023-07-08T06:49:22;19.50;68.40
66594;DHT22;53450;42.584;23.366;2023-07-08T06:51:48;19.46;68.67
66594;DHT22;53450;42.584;23.366;2023-07-08T06:54:13;19.60;68.88
66594;DHT22;53450;42.584;23.366;2023-07-08T06:56:40;19.69;67.53
66594;DHT22;53450;42.584;23.366;2023-07-08T06:59:09;19.67;67.87
66594;DHT22;53450;42.584;23.366;2023-07-08T07:01:35;19.49;68.65
66594;DHT22;53450;42.584;23.366;2023-07-08T07:04:02;19.56;68.44
66594;DHT22;53450;42.584;23.366;2023-07-08T07:06:29;19.59;67.58
66594;DHT22;53450;42.584;23.366;2023-07-08T07:08:54;19.73;66.58
66594;DHT22;53450;42.584;23.366;2023-07-08T07:11:20;19.91;66.80
66594;DHT22;53450;42.584;23.366;2023-07-08T07:13:46;19.78;66.99
66594;DHT22;53450;42.584;23.366;2023-07-08T07:16:11;19.73;66.71
66594;DHT22;53450;42.584;23.366;2023-07-08T07:19:02;19.71;66.07
66594;DHT22;53450;42.584;23.366;2023-07-08T07:21:53;19.88;66.69
66594;DHT22;53450;42.584;23.366;2023-07-08T07:24:19;20.08;65.81
66594;DHT22;53450;42.584;23.366;2023-07-08T07:26:44;20.41;65.06
66594;DHT22;53450;42.584;23.366;2023-07-08T07:29:10;20.53;63.15
66594;DHT22;53450;42.584;23.366;2023-07-08T07:31:36;20.34;62.96
66594;DHT22;53450;42.584;23.366;2023-07-08T07:34:02;20.36;62.71
66594;DHT22;53450;42.584;23.366;2023-07-08T07:36:28;20.31;62.50
66594;DHT22;53450;42.584;23.366;2023-07-08T07:38:54;20.25;63.16
66594;DHT22;53450;42.584;23.366;2023-07-08T07:41:20;20.17;64.85
66594;DHT22;53450;42.584;23.366;2023-07-08T07:43:45;20.20;64.45
66594;DHT22;53450;42.584;23.366;2023-07-08T07:46:11;20.41;65.31
66594;DHT22;53450;42.584;23.366;2023-07-08T07:48:38;20.66;64.59
66594;DHT22;53450;42.584;23.366;2023-07-08T07:51:04;20.34;64.28
66594;DHT22;53450;42.584;23.366;2023-07-08T07:53:31;20.32;64.32
66594;DHT22;53450;42.584;23.366;2023-07-08T07:56:01;20.39;63.54
66594;DHT22;53450;42.584;23.366;2023-07-08T07:58:27;20.39;64.15
66594;DHT22;53450;42.584;23.366;2023-07-08T08:00:52;20.49;64.09
66594;DHT22;53450;42.584;23.366;2023-07-08T08:03:19;20.36;64.04
66594;DHT22;53450;42.584;23.366;2023-07-08T08:05:45;20.39;64.72
66594;DHT22;53450;42.584;23.366;2023-07-08T08:08:11;20.24;64.85
66594;DHT22;53450;42.584;23.366;2023-07-08T08:10:37;20.17;64.44
66594;DHT22;53450;42.584;23.366;2023-07-08T08:13:03;20.28;65.49
66594;DHT22;53450;42.584;23.366;2023-07-08T08:15:29;20.45;64.16
66594;DHT22;53450;42.584;23.366;2023-07-08T08:17:54;20.55;64.42
66594;DHT22;53450;42.584;23.366;2023-07-08T08:20:23;20.69;64.87
66594;DHT22;53450;42.584;23.366;2023-07-08T08:22:49;20.87;63.23
66594;DHT22;53450;42.584;23.366;2023-07-08T08:25:15;20.96;62.93
66594;DHT22;53450;42.584;23.366;2023-07-08T08:27:41;20.84;63.44
66594;DHT22;53450;42.584;23.366;2023-07-08T08:30:07;20.80;63.54
66594;DHT22;53450;42.584;23.366;2023-07-08T08:32:33;20.69;63.10
66594;DHT22;53450;42.584;23.366;2023-07-08T08:34:59;20.61;62.81
66594;DHT22;53450;42.584;23.366;2023-07-08T08:37:24;20.77;64.15
66594;DHT22;53450;42.584;23.366;2023-07-08T08:39:50;20.79;63.22
66594;DHT22;53450;42.584;23.366;2023-07-08T08:42:39;20.94;63.11
66594;DHT22;53450;42.584;23.366;2023-07-08T08:45:07;20.86;63.99
66594;DHT22;53450;42.584;23.366;2023-07-08T08:47:42;20.90;64.54
66594;DHT22;53450;42.584;23.366;2023-07-08T08:50:55;20.77;63.85
66594;DHT22;53450;42.584;23.366;2023-07-08T08:53:47;20.93;63.80
66594;DHT22;53450;42.584;23.366;2023-07-08T08:56:20;21.02;63.22
66594;DHT22;53450;42.584;23.366;2023-07-08T09:01:26;21.28;63.20
66594;DHT22;53450;42.584;23.366;2023-07-08T09:04:03;21.27;62.97
66594;DHT22;53450;42.584;23.366;2023-07-08T09:06:32;21.28;63.56
66594;DHT22;53450;42.584;23.366;2023-07-08T09:09:24;21.45;63.52
66594;DHT22;53450;42.584;23.366;2023-07-08T09:12:08;21.44;62.93
66594;DHT22;53450;42.584;23.366;2023-07-08T09:14:36;21.04;63.24
66594;DHT22;53450;42.584;23.366;2023-07-08T09:17:23;20.96;63.32
66594;DHT22;53450;42.584;23.366;2023-07-08T09:22:44;21.17;61.89
66594;DHT22;53450;42.584;23.366;2023-07-08T09:25:29;21.14;62.65
66594;DHT22;53450;42.584;23.366;2023-07-08T09:27:56;21.37;62.70
66594;DHT22;53450;42.584;23.366;2023-07-08T09:30:23;21.35;61.97
66594;DHT22;53450;42.584;23.366;2023-07-08T09:32:50;21.41;62.62
66594;DHT22;53450;42.584;23.366;2023-07-08T09:35:28;21.51;62.69
66594;DHT22;53450;42.584;23.366;2023-07-08T09:38:22;21.83;62.40
66594;DHT22;53450;42.584;23.366;2023-07-08T09:41:12;21.81;61.35
66594;DHT22;53450;42.584;23.366;2023-07-08T09:43:38;21.65;60.40
66594;DHT22;53450;42.584;23.366;2023-07-08T09:46:04;21.50;61.26
66594;DHT22;53450;42.584;23.366;2023-07-08T09:48:35;21.79;61.47
66594;DHT22;53450;42.584;23.366;2023-07-08T09:51:26;21.96;60.15
66594;DHT22;53450;42.584;23.366;2023-07-08T09:53:51;21.86;60.63
66594;DHT22;53450;42.584;23.366;2023-07-08T09:56:18;22.00;60.32
66594;DHT22;53450;42.584;23.366;2023-07-08T09:58:44;22.03;59.47
66594;DHT22;53450;42.584;23.366;2023-07-08T10:01:24;22.08;59.00
66594;DHT22;53450;42.584;23.366;2023-07-08T10:03:50;21.95;59.21
66594;DHT22;53450;42.584;23.366;2023-07-08T10:06:25;22.09;59.63
66594;DHT22;53450;42.584;23.366;2023-07-08T10:08:54;22.36;59.18
66594;DHT22;53450;42.584;23.366;2023-07-08T10:11:29;22.41;58.92
66594;DHT22;53450;42.584;23.366;2023-07-08T10:13:59;22.29;58.29
66594;DHT22;53450;42.584;23.366;2023-07-08T10:16:29;22.16;58.66
66594;DHT22;53450;42.584;23.366;2023-07-08T10:18:55;22.20;58.93
66594;DHT22;53450;42.584;23.366;2023-07-08T10:24:58;22.54;57.62
66594;DHT22;53450;42.584;23.366;2023-07-08T10:27:40;22.81;57.96
66594;DHT22;53450;42.584;23.366;2023-07-08T10:30:24;22.99;56.34
66594;DHT22;53450;42.584;23.366;2023-07-08T10:35:23;23.11;56.89
66594;DHT22;53450;42.584;23.366;2023-07-08T10:40:52;23.19;54.44
66594;DHT22;53450;42.584;23.366;2023-07-08T10:48:56;23.23;54.33
66594;DHT22;53450;42.584;23.366;2023-07-08T10:51:33;23.33;55.13
66594;DHT22;53450;42.584;23.366;2023-07-08T10:57:13;23.50;55.10
66594;DHT22;53450;42.584;23.366;2023-07-08T11:00:30;23.41;55.60
66594;DHT22;53450;42.584;23.366;2023-07-08T11:06:22;23.62;56.16
66594;DHT22;53450;42.584;23.366;2023-07-08T11:08:57;23.83;53.52
66594;DHT22;53450;42.584;23.366;2023-07-08T11:11:31;23.94;53.11
66594;DHT22;53450;42.584;23.366;2023-07-08T11:14:10;24.21;53.43
66594;DHT22;53450;42.584;23.366;2023-07-08T11:16:44;24.08;53.63
66594;DHT22;53450;42.584;23.366;2023-07-08T11:19:25;24.17;53.49
66594;DHT22;53450;42.584;23.366;2023-07-08T11:21:54;24.18;50.94
66594;DHT22;53450;42.584;23.366;2023-07-08T11:24:46;24.01;51.74
66594;DHT22;53450;42.584;23.366;2023-07-08T11:27:38;24.13;53.07
66594;DHT22;53450;42.584;23.366;2023-07-08T11:30:34;24.18;51.52
66594;DHT22;53450;42.584;23.366;2023-07-08T11:33:03;24.25;50.75
66594;DHT22;53450;42.584;23.366;2023-07-08T11:38:19;24.17;51.78
66594;DHT22;53450;42.584;23.366;2023-07-08T11:41:22;24.28;51.69
66594;DHT22;53450;42.584;23.366;2023-07-08T11:44:12;24.55;50.53
66594;DHT22;53450;42.584;23.366;2023-07-08T11:47:13;24.56;50.25
66594;DHT22;53450;42.584;23.366;2023-07-08T11:49:40;24.56;50.25
66594;DHT22;53450;42.584;23.366;2023-07-08T11:52:13;24.36;49.85
66594;DHT22;53450;42.584;23.366;2023-07-08T11:54:45;24.65;50.61
66594;DHT22;53450;42.584;23.366;2023-07-08T11:57:28;24.79;49.09
66594;DHT22;53450;42.584;23.366;2023-07-08T12:00:17;24.68;49.04
66594;DHT22;53450;42.584;23.366;2023-07-08T12:02:57;24.85;49.50
66594;DHT22;53450;42.584;23.366;2023-07-08T12:05:35;24.68;49.15
66594;DHT22;53450;42.584;23.366;2023-07-08T12:08:02;24.93;48.32
66594;DHT22;53450;42.584;23.366;2023-07-08T12:10:56;24.68;48.01
66594;DHT22;53450;42.584;23.366;2023-07-08T12:13:23;24.96;47.73
66594;DHT22;53450;42.584;23.366;2023-07-08T12:15:50;24.86;47.70
66594;DHT22;53450;42.584;23.366;2023-07-08T12:18:32;24.92;48.47
66594;DHT22;53450;42.584;23.366;2023-07-08T12:21:01;24.87;47.37
66594;DHT22;53450;42.584;23.366;2023-07-08T12:23:28;25.06;48.19
66594;DHT22;53450;42.584;23.366;2023-07-08T12:25:55;25.26;47.90
66594;DHT22;53450;42.584;23.366;2023-07-08T12:28:22;24.96;47.34
66594;DHT22;53450;42.584;23.366;2023-07-08T12:30:49;24.82;48.24
66594;DHT22;53450;42.584;23.366;2023-07-08T12:35:48;24.85;48.59
66594;DHT22;53450;42.584;23.366;2023-07-08T12:40:40;24.83;47.84
66594;DHT22;53450;42.584;23.366;2023-07-08T12:43:11;24.92;48.64
66594;DHT22;53450;42.584;23.366;2023-07-08T12:45:37;24.75;47.37
66594;DHT22;53450;42.584;23.366;2023-07-08T12:48:03;24.73;47.56
66594;DHT22;53450;42.584;23.366;2023-07-08T12:50:28;25.04;47.82
66594;DHT22;53450;42.584;23.366;2023-07-08T12:52:54;25.16;47.92
66594;DHT22;53450;42.584;23.366;2023-07-08T12:55:20;24.77;48.57
66594;DHT22;53450;42.584;23.366;2023-07-08T12:57:48;24.76;48.03
66594;DHT22;53450;42.584;23.366;2023-07-08T13:00:25;24.85;47.96
66594;DHT22;53450;42.584;23.366;2023-07-08T13:03:18;24.96;49.47
66594;DHT22;53450;42.584;23.366;2023-07-08T13:05:47;24.79;48.81
66594;DHT22;53450;42.584;23.366;2023-07-08T13:08:15;24.73;48.85
66594;DHT22;53450;42.584;23.366;2023-07-08T13:10:41;24.77;48.68
66594;DHT22;53450;42.584;23.366;2023-07-08T13:13:13;24.86;49.14
66594;DHT22;53450;42.584;23.366;2023-07-08T13:16:08;24.87;48.08
66594;DHT22;53450;42.584;23.366;2023-07-08T13:19:00;24.73;48.26
66594;DHT22;53450;42.584;23.366;2023-07-08T13:21:27;24.85;48.18
66594;DHT22;53450;42.584;23.366;2023-07-08T13:23:56;24.65;48.74
66594;DHT22;53450;42.584;23.366;2023-07-08T13:26:25;24.63;49.29
66594;DHT22;53450;42.584;23.366;2023-07-08T13:28:59;24.63;49.45
66594;DHT22;53450;42.584;23.366;2023-07-08T13:31:32;24.89;48.85
66594;DHT22;53450;42.584;23.366;2023-07-08T13:34:06;24.85;48.47
66594;DHT22;53450;42.584;23.366;2023-07-08T13:36:37;24.94;48.61
66594;DHT22;53450;42.584;23.366;2023-07-08T13:39:09;25.04;48.48
66594;DHT22;53450;42.584;23.366;2023-07-08T13:41:35;25.28;48.88
66594;DHT22;53450;42.584;23.366;2023-07-08T13:44:05;25.16;47.75
66594;DHT22;53450;42.584;23.366;2023-07-08T13:46:58;24.80;49.38
66594;DHT22;53450;42.584;23.366;2023-07-08T13:50:03;24.71;49.04
66594;DHT22;53450;42.584;23.366;2023-07-08T13:52:31;25.09;48.03
66594;DHT22;53450;42.584;23.366;2023-07-08T13:55:06;25.23;47.74
66594;DHT22;53450;42.584;23.366;2023-07-08T13:57:38;25.13;47.24
66594;DHT22;53450;42.584;23.366;2023-07-08T14:00:05;25.35;47.72
66594;DHT22;53450;42.584;23.366;2023-07-08T14:02:39;25.17;47.54
66594;DHT22;53450;42.584;23.366;2023-07-08T14:05:33;25.06;47.59
66594;DHT22;53450;42.584;23.366;2023-07-08T14:08:23;25.13;48.22
66594;DHT22;53450;42.584;23.366;2023-07-08T14:10:49;25.07;46.93
66594;DHT22;53450;42.584;23.366;2023-07-08T14:13:14;25.13;47.14
66594;DHT22;53450;42.584;23.366;2023-07-08T14:15:41;25.02;48.37
66594;DHT22;53450;42.584;23.366;2023-07-08T14:18:08;24.65;48.13
66594;DHT22;53450;42.584;23.366;2023-07-08T14:20:35;24.54;49.21
66594;DHT22;53450;42.584;23.366;2023-07-08T14:23:01;24.71;48.56
66594;DHT22;53450;42.584;23.366;2023-07-08T14:25:26;24.85;49.95
66594;DHT22;53450;42.584;23.366;2023-07-08T14:27:52;25.04;48.44
66594;DHT22;53450;42.584;23.366;2023-07-08T14:30:18;25.02;48.37
66594;DHT22;53450;42.584;23.366;2023-07-08T14:32:44;25.27;48.93
66594;DHT22;53450;42.584;23.366;2023-07-08T14:35:25;25.27;48.21
66594;DHT22;53450;42.584;23.366;2023-07-08T14:38:17;24.82;49.22
66594;DHT22;53450;42.584;23.366;2023-07-08T14:41:08;24.92;48.48
66594;DHT22;53450;42.584;23.366;2023-07-08T14:43:34;25.06;48.74
66594;DHT22;53450;42.584;23.366;2023-07-08T14:46:03;25.12;48.93
66594;DHT22;53450;42.584;23.366;2023-07-08T14:48:31;25.14;47.38
66594;DHT22;53450;42.584;23.366;2023-07-08T14:50:57;25.12;47.88
66594;DHT22;53450;42.584;23.366;2023-07-08T14:53:22;25.19;48.23
66594;DHT22;53450;42.584;23.366;2023-07-08T14:55:51;25.16;47.96
66594;DHT22;53450;42.584;23.366;2023-07-08T14:58:22;25.04;48.45
66594;DHT22;53450;42.584;23.366;2023-07-08T15:00:49;25.30;48.84
66594;DHT22;53450;42.584;23.366;2023-07-08T15:03:15;24.86;48.80
66594;DHT22;53450;42.584;23.366;2023-07-08T15:05:41;25.07;48.91
66594;DHT22;53450;42.584;23.366;2023-07-08T15:08:07;25.10;48.60
66594;DHT22;53450;42.584;23.366;2023-07-08T15:10:34;24.68;49.68
66594;DHT22;53450;42.584;23.366;2023-07-08T15:13:01;24.26;51.16
66594;DHT22;53450;42.584;23.366;2023-07-08T15:15:33;24.21;50.89
66594;DHT22;53450;42.584;23.366;2023-07-08T15:18:00;24.47;50.41
66594;DHT22;53450;42.584;23.366;2023-07-08T15:20:27;24.58;49.81
66594;DHT22;53450;42.584;23.366;2023-07-08T15:22:53;24.66;49.72
66594;DHT22;53450;42.584;23.366;2023-07-08T15:25:19;24.79;49.74
66594;DHT22;53450;42.584;23.366;2023-07-08T15:27:50;24.82;49.92
66594;DHT22;53450;42.584;23.366;2023-07-08T15:30:25;24.82;50.18
66594;DHT22;53450;42.584;23.366;2023-07-08T15:32:51;24.26;51.05
66594;DHT22;53450;42.584;23.366;2023-07-08T15:35:23;23.98;52.02
66594;DHT22;53450;42.584;23.366;2023-07-08T15:38:20;23.78;52.34
66594;DHT22;53450;42.584;23.366;2023-07-08T15:41:24;23.87;51.95
66594;DHT22;53450;42.584;23.366;2023-07-08T15:43:53;24.10;51.33
66594;DHT22;53450;42.584;23.366;2023-07-08T15:46:20;24.08;51.30
66594;DHT22;53450;42.584;23.366;2023-07-08T15:48:46;24.25;51.82
66594;DHT22;53450;42.584;23.366;2023-07-08T15:51:15;24.20;49.85
66594;DHT22;53450;42.584;23.366;2023-07-08T15:53:41;24.49;50.41
66594;DHT22;53450;42.584;23.366;2023-07-08T15:56:15;23.73;51.38
66594;DHT22;53450;42.584;23.366;2023-07-08T15:58:43;23.46;52.52
66594;DHT22;53450;42.584;23.366;2023-07-08T16:01:21;23.42;53.17
66594;DHT22;53450;42.584;23.366;2023-07-08T16:03:48;23.28;53.36
66594;DHT22;53450;42.584;23.366;2023-07-08T16:06:14;23.14;53.72
66594;DHT22;53450;42.584;23.366;2023-07-08T16:08:40;22.90;53.92
66594;DHT22;53450;42.584;23.366;2023-07-08T16:11:28;22.70;54.63
66594;DHT22;53450;42.584;23.366;2023-07-08T16:13:54;22.58;54.82
66594;DHT22;53450;42.584;23.366;2023-07-08T16:16:20;22.51;54.93
66594;DHT22;53450;42.584;23.366;2023-07-08T16:18:46;22.49;55.28
66594;DHT22;53450;42.584;23.366;2023-07-08T16:21:11;22.44;55.00
66594;DHT22;53450;42.584;23.366;2023-07-08T16:23:37;22.33;55.04
66594;DHT22;53450;42.584;23.366;2023-07-08T16:26:03;22.33;55.36